sensor_id;sensor_type;location;lat;lon;timestamp;pressure;altitude;pressure_sealevel;temperature;humidity
47220;BME280;32961;51.936;4.788;2023-06-14T00:02:06;101519.13;;;19.65;48.07
47220;BME280;32961;51.936;4.788;2023-06-14T00:04:36;101531.59;;;19.61;48.47
47220;BME280;32961;51.936;4.788;2023-06-14T00:07:06;101528.41;;;19.49;48.64
47220;BME280;32961;51.936;4.788;2023-06-14T00:09:37;101527.94;;;19.46;48.90
47220;BME280;32961;51.936;4.788;2023-06-14T00:12:06;101527.94;;;19.46;49.03
47220;BME280;32961;51.936;4.788;2023-06-14T00:14:35;101527.28;;;19.44;49.13
47220;BME280;32961;51.936;4.788;2023-06-14T00:17:03;101526.59;;;19.42;49.36
47220;BME280;32961;51.936;4.788;2023-06-14T00:19:34;101526.97;;;19.38;49.36
47220;BME280;32961;51.936;4.788;2023-06-14T00:22:03;101525.44;;;19.36;49.65
47220;BME280;32961;51.936;4.788;2023-06-14T00:24:33;101526.19;;;19.30;49.94
47220;BME280;32961;51.936;4.788;2023-06-14T00:27:00;101524.19;;;19.23;50.13
47220;BME280;32961;51.936;4.788;2023-06-14T00:29:28;101533.47;;;19.22;50.05
47220;BME280;32961;51.936;4.788;2023-06-14T00:31:56;101534.72;;;19.20;50.40
47220;BME280;32961;51.936;4.788;2023-06-14T00:34:24;101536.13;;;19.16;50.70
47220;BME280;32961;51.936;4.788;2023-06-14T00:36:52;101533.06;;;19.11;51.69
47220;BME280;32961;51.936;4.788;2023-06-14T00:39:19;101535.84;;;19.11;51.12
47220;BME280;32961;51.936;4.788;2023-06-14T00:41:49;101530.00;;;19.05;51.41
47220;BME280;32961;51.936;4.788;2023-06-14T00:44:17;101537.31;;;18.98;51.45
47220;BME280;32961;51.936;4.788;2023-06-14T00:46:45;101533.47;;;18.99;51.79
47220;BME280;32961;51.936;4.788;2023-06-14T00:49:14;101539.56;;;18.95;51.78
47220;BME280;32961;51.936;4.788;2023-06-14T00:51:43;101530.09;;;18.89;51.47
47220;BME280;32961;51.936;4.788;2023-06-14T00:54:11;101540.59;;;18.94;51.62
47220;BME280;32961;51.936;4.788;2023-06-14T00:56:39;101532.16;;;18.87;51.73
47220;BME280;32961;51.936;4.788;2023-06-14T00:59:08;101528.75;;;18.85;51.79
47220;BME280;32961;51.936;4.788;2023-06-14T01:01:37;101535.34;;;18.75;52.20
47220;BME280;32961;51.936;4.788;2023-06-14T01:04:05;101536.38;;;18.74;51.91
47220;BME280;32961;51.936;4.788;2023-06-14T01:06:38;101535.88;;;18.71;51.98
47220;BME280;32961;51.936;4.788;2023-06-14T01:09:15;101534.34;;;18.68;51.94
47220;BME280;32961;51.936;4.788;2023-06-14T01:11:50;101534.34;;;18.68;51.60
47220;BME280;32961;51.936;4.788;2023-06-14T01:14:23;101538.34;;;18.66;52.12
47220;BME280;32961;51.936;4.788;2023-06-14T01:16:53;101533.66;;;18.66;51.41
47220;BME280;32961;51.936;4.788;2023-06-14T01:19:22;101523.03;;;18.63;51.18
47220;BME280;32961;51.936;4.788;2023-06-14T01:21:52;101521.31;;;18.62;51.23
47220;BME280;32961;51.936;4.788;2023-06-14T01:24:23;101525.59;;;18.65;50.86
47220;BME280;32961;51.936;4.788;2023-06-14T01:26:53;101521.81;;;18.66;50.77
47220;BME280;32961;51.936;4.788;2023-06-14T01:29:22;101533.31;;;18.69;50.22
47220;BME280;32961;51.936;4.788;2023-06-14T01:31:53;101521.63;;;18.67;50.16
47220;BME280;32961;51.936;4.788;2023-06-14T01:34:21;101519.59;;;18.61;50.16
47220;BME280;32961;51.936;4.788;2023-06-14T01:36:50;101525.97;;;18.62;49.92
47220;BME280;32961;51.936;4.788;2023-06-14T01:39:18;101527.50;;;18.64;49.95
47220;BME280;32961;51.936;4.788;2023-06-14T01:41:49;101527.22;;;18.59;49.97
47220;BME280;32961;51.936;4.788;2023-06-14T01:44:17;101529.56;;;18.62;49.43
47220;BME280;32961;51.936;4.788;2023-06-14T01:46:46;101525.84;;;18.55;49.49
47220;BME280;32961;51.936;4.788;2023-06-14T01:49:15;101533.06;;;18.56;49.68
47220;BME280;32961;51.936;4.788;2023-06-14T01:51:43;101523.97;;;18.55;49.74
47220;BME280;32961;51.936;4.788;2023-06-14T01:54:11;101523.13;;;18.47;49.73
47220;BME280;32961;51.936;4.788;2023-06-14T01:56:39;101523.81;;;18.49;49.79
47220;BME280;32961;51.936;4.788;2023-06-14T01:59:08;101521.28;;;18.39;49.94
47220;BME280;32961;51.936;4.788;2023-06-14T02:01:36;101518.34;;;18.40;49.96
47220;BME280;32961;51.936;4.788;2023-06-14T02:04:04;101520.94;;;18.42;49.99
47220;BME280;32961;51.936;4.788;2023-06-14T02:06:32;101512.19;;;18.38;50.18
47220;BME280;32961;51.936;4.788;2023-06-14T02:09:01;101517.91;;;18.28;50.38
47220;BME280;32961;51.936;4.788;2023-06-14T02:11:29;101520.81;;;18.27;50.58
47220;BME280;32961;51.936;4.788;2023-06-14T02:13:57;101519.28;;;18.24;50.71
47220;BME280;32961;51.936;4.788;2023-06-14T02:16:28;101520.69;;;18.20;50.85
47220;BME280;32961;51.936;4.788;2023-06-14T02:18:56;101514.16;;;18.21;50.60
47220;BME280;32961;51.936;4.788;2023-06-14T02:21:24;101517.25;;;18.18;50.56
47220;BME280;32961;51.936;4.788;2023-06-14T02:23:52;101516.59;;;18.16;50.48
47220;BME280;32961;51.936;4.788;2023-06-14T02:26:20;101520.19;;;18.17;50.53
47220;BME280;32961;51.936;4.788;2023-06-14T02:28:49;101519.16;;;18.18;50.46
47220;BME280;32961;51.936;4.788;2023-06-14T02:31:16;101518.97;;;18.19;50.43
47220;BME280;32961;51.936;4.788;2023-06-14T02:33:46;101524.84;;;18.16;50.49
47220;BME280;32961;51.936;4.788;2023-06-14T02:36:13;101525.00;;;18.15;50.62
47220;BME280;32961;51.936;4.788;2023-06-14T02:38:41;101532.41;;;18.14;50.67
47220;BME280;32961;51.936;4.788;2023-06-14T02:41:09;101534.13;;;18.07;50.71
47220;BME280;32961;51.936;4.788;2023-06-14T02:43:37;101528.63;;;18.07;50.98
47220;BME280;32961;51.936;4.788;2023-06-14T02:46:05;101523.16;;;17.99;50.94
47220;BME280;32961;51.936;4.788;2023-06-14T02:48:33;101524.69;;;18.01;50.82
47220;BME280;32961;51.936;4.788;2023-06-14T02:51:02;101530.69;;;18.05;51.08
47220;BME280;32961;51.936;4.788;2023-06-14T02:53:30;101534.84;;;18.01;51.03
47220;BME280;32961;51.936;4.788;2023-06-14T02:55:58;101537.41;;;18.02;51.19
47220;BME280;32961;51.936;4.788;2023-06-14T02:58:26;101532.97;;;17.93;51.77
47220;BME280;32961;51.936;4.788;2023-06-14T03:00:54;101538.13;;;17.96;51.72
47220;BME280;32961;51.936;4.788;2023-06-14T03:03:22;101535.00;;;17.91;51.86
47220;BME280;32961;51.936;4.788;2023-06-14T03:05:51;101540.84;;;17.88;52.02
47220;BME280;32961;51.936;4.788;2023-06-14T03:08:22;101535.41;;;17.79;52.66
47220;BME280;32961;51.936;4.788;2023-06-14T03:10:54;101542.09;;;17.77;53.15
47220;BME280;32961;51.936;4.788;2023-06-14T03:13:22;101541.75;;;17.72;52.99
47220;BME280;32961;51.936;4.788;2023-06-14T03:15:50;101548.13;;;17.64;54.60
47220;BME280;32961;51.936;4.788;2023-06-14T03:18:18;101550.88;;;17.56;54.63
47220;BME280;32961;51.936;4.788;2023-06-14T03:20:53;101556.41;;;17.47;54.75
47220;BME280;32961;51.936;4.788;2023-06-14T03:23:25;101553.97;;;17.36;55.22
47220;BME280;32961;51.936;4.788;2023-06-14T03:25:53;101555.22;;;17.25;55.40
47220;BME280;32961;51.936;4.788;2023-06-14T03:28:21;101561.22;;;17.21;55.47
47220;BME280;32961;51.936;4.788;2023-06-14T03:30:49;101568.91;;;17.09;56.02
47220;BME280;32961;51.936;4.788;2023-06-14T03:33:16;101571.84;;;17.07;55.87
47220;BME280;32961;51.936;4.788;2023-06-14T03:35:44;101570.28;;;16.96;56.73
47220;BME280;32961;51.936;4.788;2023-06-14T03:38:12;101578.44;;;16.88;57.69
47220;BME280;32961;51.936;4.788;2023-06-14T03:40:41;101574.47;;;16.74;58.75
47220;BME280;32961;51.936;4.788;2023-06-14T03:43:09;101577.19;;;16.66;58.02
47220;BME280;32961;51.936;4.788;2023-06-14T03:45:37;101582.25;;;16.44;59.27
47220;BME280;32961;51.936;4.788;2023-06-14T03:48:05;101591.97;;;16.30;60.36
47220;BME280;32961;51.936;4.788;2023-06-14T03:50:35;101592.81;;;16.23;60.37
47220;BME280;32961;51.936;4.788;2023-06-14T03:53:04;101589.41;;;16.29;60.25
47220;BME280;32961;51.936;4.788;2023-06-14T03:55:32;101594.53;;;16.24;61.07
47220;BME280;32961;51.936;4.788;2023-06-14T03:58:04;101596.63;;;16.30;60.79
47220;BME280;32961;51.936;4.788;2023-06-14T04:00:32;101604.97;;;16.28;60.43
47220;BME280;32961;51.936;4.788;2023-06-14T04:03:00;101601.06;;;16.31;60.49
47220;BME280;32961;51.936;4.788;2023-06-14T04:05:30;101608.13;;;16.33;60.38
47220;BME280;32961;51.936;4.788;2023-06-14T04:07:58;101614.81;;;16.39;60.32
47220;BME280;32961;51.936;4.788;2023-06-14T04:10:27;101602.50;;;16.43;59.93
47220;BME280;32961;51.936;4.788;2023-06-14T04:12:55;101612.59;;;16.43;59.64
47220;BME280;32961;51.936;4.788;2023-06-14T04:15:24;101600.78;;;16.42;60.08
47220;BME280;32961;51.936;4.788;2023-06-14T04:17:54;101610.38;;;16.46;59.64
47220;BME280;32961;51.936;4.788;2023-06-14T04:20:24;101617.91;;;16.44;59.84
47220;BME280;32961;51.936;4.788;2023-06-14T04:22:52;101610.06;;;16.49;59.63
47220;BME280;32961;51.936;4.788;2023-06-14T04:25:20;101612.94;;;16.48;59.68
47220;BME280;32961;51.936;4.788;2023-06-14T04:27:50;101607.31;;;16.49;59.11
47220;BME280;32961;51.936;4.788;2023-06-14T04:30:19;101610.59;;;16.53;58.78
47220;BME280;32961;51.936;4.788;2023-06-14T04:32:49;101613.53;;;16.60;59.05
47220;BME280;32961;51.936;4.788;2023-06-14T04:35:20;101614.56;;;16.59;59.30
47220;BME280;32961;51.936;4.788;2023-06-14T04:37:50;101616.63;;;16.65;58.59
47220;BME280;32961;51.936;4.788;2023-06-14T04:40:20;101616.31;;;16.68;58.77
47220;BME280;32961;51.936;4.788;2023-06-14T04:42:47;101608.59;;;16.72;58.88
47220;BME280;32961;51.936;4.788;2023-06-14T04:45:17;101604.66;;;16.74;58.87
47220;BME280;32961;51.936;4.788;2023-06-14T04:47:45;101612.19;;;16.72;59.30
47220;BME280;32961;51.936;4.788;2023-06-14T04:50:14;101613.75;;;16.75;58.93
47220;BME280;32961;51.936;4.788;2023-06-14T04:52:44;101620.25;;;16.74;59.36
47220;BME280;32961;51.936;4.788;2023-06-14T04:55:12;101613.91;;;16.73;59.67
47220;BME280;32961;51.936;4.788;2023-06-14T04:57:41;101611.38;;;16.80;59.48
47220;BME280;32961;51.936;4.788;2023-06-14T05:00:09;101616.41;;;16.93;59.42
47220;BME280;32961;51.936;4.788;2023-06-14T05:02:38;101616.56;;;16.91;59.23
47220;BME280;32961;51.936;4.788;2023-06-14T05:05:07;101616.94;;;16.96;59.26
47220;BME280;32961;51.936;4.788;2023-06-14T05:07:36;101613.00;;;16.99;59.00
47220;BME280;32961;51.936;4.788;2023-06-14T05:10:08;101620.06;;;17.10;58.83
47220;BME280;32961;51.936;4.788;2023-06-14T05:12:36;101631.41;;;17.23;58.49
47220;BME280;32961;51.936;4.788;2023-06-14T05:15:05;101615.09;;;17.22;59.15
47220;BME280;32961;51.936;4.788;2023-06-14T05:17:35;101623.19;;;17.31;58.98
47220;BME280;32961;51.936;4.788;2023-06-14T05:20:04;101628.53;;;17.41;58.68
47220;BME280;32961;51.936;4.788;2023-06-14T05:22:33;101632.44;;;17.47;58.53
47220;BME280;32961;51.936;4.788;2023-06-14T05:25:02;101638.28;;;17.52;58.26
47220;BME280;32961;51.936;4.788;2023-06-14T05:27:31;101623.53;;;17.61;58.01
47220;BME280;32961;51.936;4.788;2023-06-14T05:29:58;101628.34;;;17.68;58.01
47220;BME280;32961;51.936;4.788;2023-06-14T05:32:26;101627.31;;;17.77;57.63
47220;BME280;32961;51.936;4.788;2023-06-14T05:34:54;101630.22;;;17.84;57.37
47220;BME280;32961;51.936;4.788;2023-06-14T05:37:22;101635.72;;;17.92;57.20
47220;BME280;32961;51.936;4.788;2023-06-14T05:39:50;101634.53;;;18.03;55.80
47220;BME280;32961;51.936;4.788;2023-06-14T05:42:19;101640.88;;;18.11;55.51
47220;BME280;32961;51.936;4.788;2023-06-14T05:44:47;101641.84;;;18.27;54.74
47220;BME280;32961;51.936;4.788;2023-06-14T05:47:15;101635.28;;;18.36;54.37
47220;BME280;32961;51.936;4.788;2023-06-14T05:49:43;101641.28;;;18.48;54.33
47220;BME280;32961;51.936;4.788;2023-06-14T05:52:10;101641.00;;;18.66;53.69
47220;BME280;32961;51.936;4.788;2023-06-14T05:54:39;101649.06;;;18.76;54.08
47220;BME280;32961;51.936;4.788;2023-06-14T05:57:07;101643.31;;;18.94;52.96
47220;BME280;32961;51.936;4.788;2023-06-14T05:59:37;101648.31;;;18.99;52.65
47220;BME280;32961;51.936;4.788;2023-06-14T06:02:05;101645.31;;;19.08;52.44
47220;BME280;32961;51.936;4.788;2023-06-14T06:04:33;101641.78;;;19.23;51.58
47220;BME280;32961;51.936;4.788;2023-06-14T06:07:01;101647.25;;;19.31;51.33
47220;BME280;32961;51.936;4.788;2023-06-14T06:09:29;101647.84;;;19.42;49.29
47220;BME280;32961;51.936;4.788;2023-06-14T06:11:57;101646.63;;;19.44;48.84
47220;BME280;32961;51.936;4.788;2023-06-14T06:14:24;101643.97;;;19.51;48.80
47220;BME280;32961;51.936;4.788;2023-06-14T06:16:54;101644.16;;;19.49;48.42
47220;BME280;32961;51.936;4.788;2023-06-14T06:19:22;101641.84;;;19.61;48.11
47220;BME280;32961;51.936;4.788;2023-06-14T06:21:50;101649.88;;;19.71;48.03
47220;BME280;32961;51.936;4.788;2023-06-14T06:24:17;101656.84;;;19.82;47.73
47220;BME280;32961;51.936;4.788;2023-06-14T06:26:45;101647.47;;;19.91;47.46
47220;BME280;32961;51.936;4.788;2023-06-14T06:29:13;101655.31;;;20.02;47.30
47220;BME280;32961;51.936;4.788;2023-06-14T06:31:41;101648.75;;;20.18;46.15
47220;BME280;32961;51.936;4.788;2023-06-14T06:34:11;101658.44;;;20.29;45.69
47220;BME280;32961;51.936;4.788;2023-06-14T06:36:38;101662.06;;;20.45;45.70
47220;BME280;32961;51.936;4.788;2023-06-14T06:39:06;101658.75;;;20.49;45.38
47220;BME280;32961;51.936;4.788;2023-06-14T06:41:37;101668.34;;;20.53;45.92
47220;BME280;32961;51.936;4.788;2023-06-14T06:44:06;101660.81;;;20.62;44.63
47220;BME280;32961;51.936;4.788;2023-06-14T06:46:34;101667.63;;;20.75;44.11
47220;BME280;32961;51.936;4.788;2023-06-14T06:49:06;101669.78;;;20.64;44.10
47220;BME280;32961;51.936;4.788;2023-06-14T06:51:36;101675.97;;;20.66;45.03
47220;BME280;32961;51.936;4.788;2023-06-14T06:54:04;101684.47;;;20.80;44.34
47220;BME280;32961;51.936;4.788;2023-06-14T06:56:32;101681.03;;;20.78;43.59
47220;BME280;32961;51.936;4.788;2023-06-14T06:59:00;101686.66;;;20.84;43.86
47220;BME280;32961;51.936;4.788;2023-06-14T07:01:28;101685.59;;;20.86;43.91
47220;BME280;32961;51.936;4.788;2023-06-14T07:03:56;101681.75;;;21.02;43.72
47220;BME280;32961;51.936;4.788;2023-06-14T07:06:24;101693.66;;;21.17;43.85
47220;BME280;32961;51.936;4.788;2023-06-14T07:08:55;101683.91;;;21.21;43.69
47220;BME280;32961;51.936;4.788;2023-06-14T07:11:28;101690.03;;;21.38;43.61
47220;BME280;32961;51.936;4.788;2023-06-14T07:13:55;101693.94;;;21.44;43.02
47220;BME280;32961;51.936;4.788;2023-06-14T07:16:23;101695.84;;;21.43;42.47
47220;BME280;32961;51.936;4.788;2023-06-14T07:18:52;101701.66;;;21.48;42.88
47220;BME280;32961;51.936;4.788;2023-06-14T07:21:20;101693.28;;;21.42;43.20
47220;BME280;32961;51.936;4.788;2023-06-14T07:23:48;101707.25;;;21.55;43.61
47220;BME280;32961;51.936;4.788;2023-06-14T07:26:20;101701.16;;;21.60;42.65
47220;BME280;32961;51.936;4.788;2023-06-14T07:28:49;101710.72;;;21.57;43.14
47220;BME280;32961;51.936;4.788;2023-06-14T07:31:17;101708.63;;;21.59;42.80
47220;BME280;32961;51.936;4.788;2023-06-14T07:33:45;101705.56;;;21.76;42.63
47220;BME280;32961;51.936;4.788;2023-06-14T07:36:13;101710.53;;;21.80;42.40
47220;BME280;32961;51.936;4.788;2023-06-14T07:38:41;101715.72;;;21.90;42.40
47220;BME280;32961;51.936;4.788;2023-06-14T07:41:09;101722.75;;;21.93;42.59
47220;BME280;32961;51.936;4.788;2023-06-14T07:43:38;101720.69;;;22.02;42.49
47220;BME280;32961;51.936;4.788;2023-06-14T07:46:06;101717.84;;;22.17;42.25
47220;BME280;32961;51.936;4.788;2023-06-14T07:48:36;101721.38;;;22.32;42.00
47220;BME280;32961;51.936;4.788;2023-06-14T07:51:04;101721.59;;;22.31;41.30
47220;BME280;32961;51.936;4.788;2023-06-14T07:53:32;101713.81;;;22.41;40.62
47220;BME280;32961;51.936;4.788;2023-06-14T07:56:00;101726.25;;;22.58;40.71
47220;BME280;32961;51.936;4.788;2023-06-14T07:58:29;101721.34;;;22.54;40.02
47220;BME280;32961;51.936;4.788;2023-06-14T08:00:58;101723.09;;;22.62;40.33
47220;BME280;32961;51.936;4.788;2023-06-14T08:03:27;101724.22;;;22.67;39.66
47220;BME280;32961;51.936;4.788;2023-06-14T08:05:56;101732.75;;;22.72;40.02
47220;BME280;32961;51.936;4.788;2023-06-14T08:08:24;101723.63;;;22.79;40.12
47220;BME280;32961;51.936;4.788;2023-06-14T08:10:52;101727.38;;;22.99;39.78
47220;BME280;32961;51.936;4.788;2023-06-14T08:13:20;101722.69;;;23.06;39.73
47220;BME280;32961;51.936;4.788;2023-06-14T08:15:48;101727.00;;;23.16;39.68
47220;BME280;32961;51.936;4.788;2023-06-14T08:18:17;101727.38;;;23.06;38.07
47220;BME280;32961;51.936;4.788;2023-06-14T08:20:45;101717.78;;;23.08;37.94
47220;BME280;32961;51.936;4.788;2023-06-14T08:23:13;101720.69;;;23.29;37.81
47220;BME280;32961;51.936;4.788;2023-06-14T08:25:42;101721.13;;;23.39;38.19
47220;BME280;32961;51.936;4.788;2023-06-14T08:28:10;101730.25;;;23.26;37.19
47220;BME280;32961;51.936;4.788;2023-06-14T08:30:37;101726.03;;;23.30;37.94
47220;BME280;32961;51.936;4.788;2023-06-14T08:33:05;101723.72;;;23.47;38.15
47220;BME280;32961;51.936;4.788;2023-06-14T08:35:44;101724.59;;;23.61;38.58
47220;BME280;32961;51.936;4.788;2023-06-14T08:38:12;101745.06;;;23.60;37.61
47220;BME280;32961;51.936;4.788;2023-06-14T08:40:41;101721.44;;;23.78;37.90
47220;BME280;32961;51.936;4.788;2023-06-14T08:43:09;101728.53;;;23.94;38.33
47220;BME280;32961;51.936;4.788;2023-06-14T08:45:37;101731.09;;;24.15;36.94
47220;BME280;32961;51.936;4.788;2023-06-14T08:48:06;101720.19;;;24.34;37.36
47220;BME280;32961;51.936;4.788;2023-06-14T08:50:36;101727.22;;;24.50;37.17
47220;BME280;32961;51.936;4.788;2023-06-14T08:53:11;101719.09;;;24.55;36.57
47220;BME280;32961;51.936;4.788;2023-06-14T08:55:46;101720.31;;;24.79;36.76
47220;BME280;32961;51.936;4.788;2023-06-14T08:58:14;101724.94;;;25.06;34.67
47220;BME280;32961;51.936;4.788;2023-06-14T09:00:42;101727.03;;;25.17;34.70
47220;BME280;32961;51.936;4.788;2023-06-14T09:03:11;101730.41;;;25.26;34.98
47220;BME280;32961;51.936;4.788;2023-06-14T09:05:41;101724.41;;;25.29;34.61
47220;BME280;32961;51.936;4.788;2023-06-14T09:08:11;101731.88;;;25.35;33.37
47220;BME280;32961;51.936;4.788;2023-06-14T09:10:40;101727.84;;;25.24;33.84
47220;BME280;32961;51.936;4.788;2023-06-14T09:13:08;101733.88;;;25.21;33.52
47220;BME280;32961;51.936;4.788;2023-06-14T09:15:36;101733.91;;;25.14;33.58
47220;BME280;32961;51.936;4.788;2023-06-14T09:18:04;101728.09;;;25.23;33.50
47220;BME280;32961;51.936;4.788;2023-06-14T09:20:32;101735.97;;;25.26;32.79
47220;BME280;32961;51.936;4.788;2023-06-14T09:23:00;101733.00;;;25.21;32.89
47220;BME280;32961;51.936;4.788;2023-06-14T09:25:30;101741.81;;;25.18;32.94
47220;BME280;32961;51.936;4.788;2023-06-14T09:28:00;101735.16;;;25.19;32.69
47220;BME280;32961;51.936;4.788;2023-06-14T09:30:28;101740.44;;;25.34;32.89
47220;BME280;32961;51.936;4.788;2023-06-14T09:32:56;101738.88;;;25.51;32.31
47220;BME280;32961;51.936;4.788;2023-06-14T09:35:27;101740.28;;;25.67;31.57
47220;BME280;32961;51.936;4.788;2023-06-14T09:37:56;101737.09;;;25.63;30.68
47220;BME280;32961;51.936;4.788;2023-06-14T09:40:24;101739.78;;;25.45;31.17
47220;BME280;32961;51.936;4.788;2023-06-14T09:42:53;101745.94;;;25.54;31.71
47220;BME280;32961;51.936;4.788;2023-06-14T09:45:25;101753.38;;;25.60;30.23
47220;BME280;32961;51.936;4.788;2023-06-14T09:47:57;101748.81;;;25.72;29.40
47220;BME280;32961;51.936;4.788;2023-06-14T09:50:28;101743.06;;;25.67;29.40
47220;BME280;32961;51.936;4.788;2023-06-14T09:52:59;101737.50;;;25.67;29.54
47220;BME280;32961;51.936;4.788;2023-06-14T09:55:30;101739.13;;;25.82;29.24
47220;BME280;32961;51.936;4.788;2023-06-14T09:58:00;101735.88;;;25.85;29.54
47220;BME280;32961;51.936;4.788;2023-06-14T10:00:33;101738.63;;;25.91;28.42
47220;BME280;32961;51.936;4.788;2023-06-14T10:03:06;101740.34;;;25.92;28.57
47220;BME280;32961;51.936;4.788;2023-06-14T10:05:36;101741.31;;;26.05;28.80
47220;BME280;32961;51.936;4.788;2023-06-14T10:08:08;101737.56;;;26.18;28.99
47220;BME280;32961;51.936;4.788;2023-06-14T10:10:38;101739.13;;;26.39;28.73
47220;BME280;32961;51.936;4.788;2023-06-14T10:13:08;101736.97;;;26.59;28.94
47220;BME280;32961;51.936;4.788;2023-06-14T10:15:42;101745.25;;;26.66;28.01
47220;BME280;32961;51.936;4.788;2023-06-14T10:18:17;101731.66;;;26.77;27.07
47220;BME280;32961;51.936;4.788;2023-06-14T10:20:55;101732.75;;;26.75;27.22
47220;BME280;32961;51.936;4.788;2023-06-14T10:23:25;101740.81;;;26.84;28.19
47220;BME280;32961;51.936;4.788;2023-06-14T10:25:56;101738.66;;;26.61;26.98
47220;BME280;32961;51.936;4.788;2023-06-14T10:28:27;101737.28;;;26.51;27.01
47220;BME280;32961;51.936;4.788;2023-06-14T10:31:07;101740.22;;;26.56;26.78
47220;BME280;32961;51.936;4.788;2023-06-14T10:33:36;101737.03;;;26.78;27.64
47220;BME280;32961;51.936;4.788;2023-06-14T10:36:11;101734.84;;;26.80;27.15
47220;BME280;32961;51.936;4.788;2023-06-14T10:38:57;101733.06;;;26.86;27.66
47220;BME280;32961;51.936;4.788;2023-06-14T10:41:27;101737.56;;;27.05;26.91
47220;BME280;32961;51.936;4.788;2023-06-14T10:44:34;101737.19;;;27.02;27.46
47220;BME280;32961;51.936;4.788;2023-06-14T10:47:24;101733.91;;;27.23;27.19
47220;BME280;32961;51.936;4.788;2023-06-14T10:49:54;101743.88;;;27.31;26.57
47220;BME280;32961;51.936;4.788;2023-06-14T10:52:26;101735.25;;;27.51;27.36
47220;BME280;32961;51.936;4.788;2023-06-14T10:55:13;101735.41;;;27.57;25.59
47220;BME280;32961;51.936;4.788;2023-06-14T10:57:44;101732.84;;;27.55;26.24
47220;BME280;32961;51.936;4.788;2023-06-14T11:00:21;101733.16;;;27.77;26.24
47220;BME280;32961;51.936;4.788;2023-06-14T11:03:07;101739.09;;;27.81;26.34
47220;BME280;32961;51.936;4.788;2023-06-14T11:05:48;101733.53;;;27.81;26.06
47220;BME280;32961;51.936;4.788;2023-06-14T11:08:27;101732.56;;;27.75;26.02
47220;BME280;32961;51.936;4.788;2023-06-14T11:11:00;101729.66;;;27.82;25.66
47220;BME280;32961;51.936;4.788;2023-06-14T11:13:30;101730.72;;;27.81;25.19
47220;BME280;32961;51.936;4.788;2023-06-14T11:15:59;101721.97;;;27.77;26.00
47220;BME280;32961;51.936;4.788;2023-06-14T11:18:28;101722.38;;;27.93;25.21
47220;BME280;32961;51.936;4.788;2023-06-14T11:20:56;101723.03;;;28.07;25.62
47220;BME280;32961;51.936;4.788;2023-06-14T11:23:24;101717.09;;;28.15;25.56
47220;BME280;32961;51.936;4.788;2023-06-14T11:25:52;101712.53;;;27.78;25.71
47220;BME280;32961;51.936;4.788;2023-06-14T11:28:21;101704.84;;;28.16;26.33
47220;BME280;32961;51.936;4.788;2023-06-14T11:31:01;101700.44;;;28.56;25.73
47220;BME280;32961;51.936;4.788;2023-06-14T11:33:28;101708.34;;;28.82;25.33
47220;BME280;32961;51.936;4.788;2023-06-14T11:35:56;101707.25;;;28.72;24.62
47220;BME280;32961;51.936;4.788;2023-06-14T11:38:25;101703.72;;;28.64;24.50
47220;BME280;32961;51.936;4.788;2023-06-14T11:40:53;101695.22;;;28.59;24.31
47220;BME280;32961;51.936;4.788;2023-06-14T11:43:20;101696.94;;;28.60;24.63
47220;BME280;32961;51.936;4.788;2023-06-14T11:45:48;101698.72;;;28.66;24.14
47220;BME280;32961;51.936;4.788;2023-06-14T11:48:38;101701.53;;;28.66;23.24
47220;BME280;32961;51.936;4.788;2023-06-14T11:51:06;101700.91;;;28.64;23.58
47220;BME280;32961;51.936;4.788;2023-06-14T11:53:34;101696.81;;;28.67;23.43
47220;BME280;32961;51.936;4.788;2023-06-14T11:56:03;101685.75;;;28.72;23.72
47220;BME280;32961;51.936;4.788;2023-06-14T11:58:31;101698.88;;;28.72;23.16
47220;BME280;32961;51.936;4.788;2023-06-14T12:01:03;101703.50;;;28.66;23.69
47220;BME280;32961;51.936;4.788;2023-06-14T12:03:31;101703.50;;;28.54;23.42
47220;BME280;32961;51.936;4.788;2023-06-14T12:06:04;101702.66;;;28.30;23.29
47220;BME280;32961;51.936;4.788;2023-06-14T12:08:34;101691.25;;;28.20;23.31
47220;BME280;32961;51.936;4.788;2023-06-14T12:11:06;101702.53;;;28.37;24.87
47220;BME280;32961;51.936;4.788;2023-06-14T12:13:38;101700.34;;;28.62;24.17
47220;BME280;32961;51.936;4.788;2023-06-14T12:16:07;101703.63;;;28.71;22.73
47220;BME280;32961;51.936;4.788;2023-06-14T12:18:37;101695.34;;;28.76;23.59
47220;BME280;32961;51.936;4.788;2023-06-14T12:21:08;101704.81;;;28.75;23.25
47220;BME280;32961;51.936;4.788;2023-06-14T12:23:43;101708.69;;;28.98;23.75
47220;BME280;32961;51.936;4.788;2023-06-14T12:26:15;101706.69;;;29.10;22.54
47220;BME280;32961;51.936;4.788;2023-06-14T12:28:44;101706.34;;;29.07;23.05
47220;BME280;32961;51.936;4.788;2023-06-14T12:31:13;101705.34;;;29.13;22.84
47220;BME280;32961;51.936;4.788;2023-06-14T12:33:42;101710.13;;;29.01;23.04
47220;BME280;32961;51.936;4.788;2023-06-14T12:36:13;101706.63;;;28.93;22.93
47220;BME280;32961;51.936;4.788;2023-06-14T12:38:42;101713.41;;;28.97;23.99
47220;BME280;32961;51.936;4.788;2023-06-14T12:41:10;101708.69;;;28.86;23.58
47220;BME280;32961;51.936;4.788;2023-06-14T12:43:38;101709.75;;;29.09;23.72
47220;BME280;32961;51.936;4.788;2023-06-14T12:46:05;101713.84;;;29.18;23.13
47220;BME280;32961;51.936;4.788;2023-06-14T12:48:33;101712.38;;;29.16;22.58
47220;BME280;32961;51.936;4.788;2023-06-14T12:51:01;101700.25;;;29.10;23.35
47220;BME280;32961;51.936;4.788;2023-06-14T12:53:30;101688.56;;;29.13;23.02
47220;BME280;32961;51.936;4.788;2023-06-14T12:55:58;101690.78;;;29.28;23.51
47220;BME280;32961;51.936;4.788;2023-06-14T12:58:26;101698.00;;;29.36;23.00
47220;BME280;32961;51.936;4.788;2023-06-14T13:00:54;101697.75;;;29.37;22.85
47220;BME280;32961;51.936;4.788;2023-06-14T13:03:21;101699.44;;;29.38;23.62